OEMA/MED METAR and TAF weather

Enter ICAO airport designator
Station Type Date Time Source
OEMA METAR 2019/10/15 19:00 UTC NOAA

OEMA 151900Z 11010KT 9999 FEW045 35/01 Q1016 NOSIG


Station Type Date Time Source
OEMA Decoded METAR 2019/10/15 19:00 UTC NOAA

Madinah, Saudi Arabia (OEMA) 24-33N 039-42E 636M
Oct 15, 2019 - 03:00 PM EDT / 2019.10.15 1900 UTC
Wind: from the ESE (110 degrees) at 12 MPH (10 KT):0
Visibility: greater than 7 mile(s):0
Sky conditions: mostly clear
Temperature: 95 F (35 C)
Dew Point: 33 F (1 C)
Relative Humidity: 11%
Pressure (altimeter): 30.00 in. Hg (1016 hPa)
ob: OEMA 151900Z 11010KT 9999 FEW045 35/01 Q1016 NOSIG
cycle: 19

Station Type Date Time Source
OEMA TAF 2019/10/15 18:06 UTC NOAA

TAF OEMA 151700Z 1518/1624 08010KT 8000 FEW045 SCT080
TEMPO 1518/1522 VRB20KT 4000 TS FEW040CB BKN045
BECMG 1523/1601 VRB03KT
BECMG 1606/1608 09010KT

Example: see airport list